Time;durP1;ratioP1;P1;durP2;ratioP2;P2;SDS_P1;SDS_P2;PMS_P1;PMS_P2;Temp;Humidity;BMP_temperature;BMP_pressure;BME280_temperature;BME280_humidity;BME280_pressure;Samples;Min_cycle;Max_cycle;Signal;HPM_P1;HPM_P2
2021/05/07 00:01:38;;;;;;;6.45;2.60;;;;;;;11.87;89.35;98686.61;1759970;80;21579;-72
2021/05/07 00:04:15;;;;;;;7.08;2.85;;;;;;;11.88;89.16;98689.23;1745945;80;21309;-70
2021/05/07 00:06:51;;;;;;;6.15;2.77;;;;;;;11.87;88.50;98690.13;1759126;80;21160;-71
2021/05/07 00:09:28;;;;;;;6.40;3.10;;;;;;;11.88;89.04;98695.83;1758792;80;20946;-72
2021/05/07 00:11:59;;;;;;;10.18;3.17;;;;;;;11.90;89.19;98691.39;1758751;80;21129;-72
2021/05/07 00:14:34;;;;;;;7.70;3.17;;;;;;;11.90;88.60;98691.84;1771867;79;21346;-71
2021/05/07 00:17:12;;;;;;;5.10;2.92;;;;;;;11.90;87.79;98695.80;1797495;78;21077;-73
2021/05/07 00:19:48;;;;;;;7.20;3.17;;;;;;;11.91;87.46;98696.22;1796189;79;20931;-73
2021/05/07 00:22:21;;;;;;;6.72;2.92;;;;;;;11.91;88.49;98697.09;1771148;79;21548;-72
2021/05/07 00:24:57;;;;;;;5.60;3.00;;;;;;;11.90;89.50;98693.16;1707144;82;21079;-73
2021/05/07 00:27:29;;;;;;;6.70;3.00;;;;;;;11.90;89.89;98687.88;1737077;81;21370;-73
2021/05/07 00:30:13;;;;;;;11.05;2.83;;;;;;;11.90;90.79;98683.91;1767875;80;21549;-72
2021/05/07 00:32:53;;;;;;;7.65;2.92;;;;;;;11.90;91.35;98677.30;1767873;80;21065;-73
2021/05/07 00:35:36;;;;;;;12.50;3.42;;;;;;;11.90;91.37;98678.17;1768551;79;20939;-73
2021/05/07 00:38:15;;;;;;;7.03;3.08;;;;;;;11.88;89.30;98679.97;1695087;82;20943;-73
2021/05/07 00:40:47;;;;;;;5.95;3.37;;;;;;;11.89;88.21;98680.84;1711225;82;26753;-73
2021/05/07 00:43:25;;;;;;;7.62;2.87;;;;;;;11.86;88.08;98678.27;1767858;79;21042;-72
2021/05/07 00:46:00;;;;;;;6.47;3.30;;;;;;;11.82;88.11;98682.70;1712928;82;21530;-72
2021/05/07 00:48:35;;;;;;;9.98;3.35;;;;;;;11.78;88.93;98677.50;1710810;82;20942;-72
2021/05/07 00:51:11;;;;;;;11.83;4.08;;;;;;;11.75;89.02;98685.00;1798703;78;21089;-72
2021/05/07 00:53:47;;;;;;;9.43;3.20;;;;;;;11.71;87.88;98674.52;1768083;79;21141;-70
2021/05/07 00:56:24;;;;;;;6.25;3.08;;;;;;;11.66;87.57;98670.19;1793438;79;21049;-72
2021/05/07 00:59:08;;;;;;;8.10;2.92;;;;;;;11.64;87.75;98661.88;1789127;78;20943;-71
2021/05/07 01:01:45;;;;;;;13.62;2.90;;;;;;;11.59;86.42;98656.67;1713853;82;21025;-69
2021/05/07 01:04:22;;;;;;;7.55;2.75;;;;;;;11.57;85.67;98653.19;1711041;82;21581;-73
2021/05/07 01:06:58;;;;;;;4.92;2.70;;;;;;;11.53;85.83;98653.27;1768819;79;22164;-73
2021/05/07 01:09:42;;;;;;;5.15;2.75;;;;;;;11.47;85.78;98654.70;1770527;79;20996;-74
2021/05/07 01:12:27;;;;;;;5.37;2.50;;;;;;;11.39;85.56;98653.52;1767625;80;21022;-72
2021/05/07 01:15:10;;;;;;;4.42;2.65;;;;;;;11.29;84.85;98650.13;1711232;82;21593;-72
2021/05/07 01:17:46;;;;;;;6.42;3.08;;;;;;;11.20;84.65;98653.38;1711387;82;21023;-74
2021/05/07 01:20:45;;;;;;;6.62;2.50;;;;;;;11.12;84.68;98652.63;1705694;82;20939;-73
2021/05/07 01:26:15;;;;;;;6.30;2.22;;;;;;;10.97;84.75;98644.51;1838498;77;22625;-73
2021/05/07 01:28:53;;;;;;;7.87;2.47;;;;;;;10.89;84.98;98652.99;1800612;78;20942;-73
2021/05/07 01:31:29;;;;;;;4.05;2.37;;;;;;;10.84;85.28;98647.75;1726424;81;20985;-73
2021/05/07 01:34:07;;;;;;;6.28;2.22;;;;;;;10.77;85.33;98649.19;1716367;83;20962;-74
2021/05/07 01:36:40;;;;;;;5.03;2.25;;;;;;;10.70;85.90;98646.64;1725135;81;20899;-74
2021/05/07 01:39:16;;;;;;;7.37;2.70;;;;;;;10.65;86.23;98636.61;1716859;82;21531;-73
2021/05/07 01:41:50;;;;;;;3.70;2.55;;;;;;;10.60;86.12;98637.13;1724722;81;20993;-73
2021/05/07 01:44:24;;;;;;;6.45;2.75;;;;;;;10.55;86.44;98634.13;1716475;83;22140;-73
2021/05/07 01:46:59;;;;;;;4.08;2.52;;;;;;;10.52;87.74;98632.85;1699994;83;21025;-73
2021/05/07 01:49:33;;;;;;;5.28;2.45;;;;;;;10.48;88.99;98627.20;1718393;82;21093;-73
2021/05/07 01:52:08;;;;;;;5.35;2.90;;;;;;;10.44;90.23;98626.37;1726460;81;20947;-72
2021/05/07 01:54:45;;;;;;;5.97;2.58;;;;;;;10.40;90.91;98625.95;1715717;82;20986;-72
2021/05/07 01:57:35;;;;;;;3.22;2.58;;;;;;;10.37;91.72;98633.45;1726328;81;21246;-72
2021/05/07 02:00:10;;;;;;;4.85;2.40;;;;;;;10.33;92.87;98632.20;1702983;82;20946;-72
2021/05/07 02:02:59;;;;;;;7.40;2.80;;;;;;;10.28;93.77;98638.86;1745602;80;21054;-72
2021/05/07 02:05:37;;;;;;;14.45;3.45;;;;;;;10.26;95.03;98638.00;1772544;79;21065;-72
2021/05/07 02:08:11;;;;;;;9.95;3.10;;;;;;;10.25;95.70;98638.89;1745962;80;20923;-72
2021/05/07 02:10:46;;;;;;;10.98;3.30;;;;;;;10.24;96.98;98642.42;1724196;80;21092;-71
2021/05/07 02:13:18;;;;;;;;;;;;;;;10.25;97.74;98648.12;1707540;81;20965;-72
2021/05/07 02:15:55;;;;;;;8.53;2.67;;;;;;;10.25;98.15;98637.58;1735804;80;20140;-71
2021/05/07 02:18:27;;;;;;;15.25;3.62;;;;;;;10.27;98.54;98642.83;1751038;80;20923;-72
2021/05/07 02:21:04;;;;;;;6.15;3.00;;;;;;;10.27;99.08;98645.02;1724401;81;21029;-72
2021/05/07 02:23:57;;;;;;;18.15;3.60;;;;;;;10.30;99.91;98640.16;1705843;82;21409;-72
2021/05/07 02:26:39;;;;;;;8.35;3.33;;;;;;;10.34;100.00;98641.86;1812350;79;22871;-73
2021/05/07 02:29:17;;;;;;;15.83;3.45;;;;;;;10.29;100.00;98650.27;1780047;80;20887;-72
2021/05/07 02:31:52;;;;;;;14.98;3.22;;;;;;;10.28;99.94;98642.81;1779817;80;22168;-71
2021/05/07 02:34:31;;;;;;;4.15;2.90;;;;;;;10.27;100.00;98650.30;1759387;81;21342;-73
2021/05/07 02:37:12;;;;;;;6.42;2.98;;;;;;;10.24;100.00;98646.38;1765623;80;20982;-72
2021/05/07 02:39:49;;;;;;;6.28;2.95;;;;;;;10.20;100.00;98640.72;1780723;80;20884;-72
2021/05/07 02:42:23;;;;;;;7.72;2.95;;;;;;;10.18;100.00;98641.16;1758463;80;20934;-72
2021/05/07 02:45:02;;;;;;;5.67;2.70;;;;;;;10.14;100.00;98638.58;1790770;80;21362;-72
2021/05/07 02:47:32;;;;;;;3.27;2.90;;;;;;;10.12;100.00;98640.36;1731913;81;20994;-72
2021/05/07 02:50:06;;;;;;;9.93;2.75;;;;;;;10.12;100.00;98649.58;1756577;80;21014;-72
2021/05/07 02:52:46;;;;;;;5.62;2.92;;;;;;;10.10;100.00;98653.11;1717851;82;21524;-71
2021/05/07 02:55:23;;;;;;;7.55;2.80;;;;;;;10.10;100.00;98650.92;1729251;83;21568;-72
2021/05/07 02:57:56;;;;;;;3.95;2.92;;;;;;;10.10;99.94;98646.52;1722480;83;21349;-72
2021/05/07 03:00:28;;;;;;;5.58;3.08;;;;;;;10.09;99.71;98643.45;1717276;83;20982;-72
2021/05/07 03:02:59;;;;;;;8.18;3.55;;;;;;;10.07;99.98;98645.69;1717569;83;21390;-71
2021/05/07 03:05:31;;;;;;;5.72;3.40;;;;;;;10.06;100.00;98636.03;1719135;83;21030;-71
2021/05/07 03:08:02;;;;;;;6.12;3.40;;;;;;;10.03;100.00;98642.22;1702555;83;21084;-69
2021/05/07 03:10:33;;;;;;;8.95;3.50;;;;;;;10.03;100.00;98645.30;1707072;81;21374;-72
2021/05/07 03:13:08;;;;;;;5.10;3.22;;;;;;;10.03;100.00;98647.93;1746401;81;20975;-71
2021/05/07 03:15:38;;;;;;;5.28;3.10;;;;;;;10.05;100.00;98646.15;1739733;81;21007;-71
2021/05/07 03:18:17;;;;;;;5.05;2.72;;;;;;;10.04;100.00;98642.64;1748146;81;20978;-71
2021/05/07 03:20:52;;;;;;;4.53;2.70;;;;;;;10.07;100.00;98636.46;1721896;82;20959;-72
2021/05/07 03:23:27;;;;;;;5.15;2.72;;;;;;;10.10;100.00;98632.47;1745527;81;21146;-71
2021/05/07 03:25:58;;;;;;;7.03;3.17;;;;;;;10.12;100.00;98636.41;1728645;81;20954;-71
2021/05/07 03:28:34;;;;;;;9.55;2.98;;;;;;;10.13;100.00;98637.70;1709483;82;21520;-71
2021/05/07 03:31:08;;;;;;;9.48;2.80;;;;;;;10.16;100.00;98636.79;1705746;82;21062;-72
2021/05/07 03:33:47;;;;;;;6.92;3.08;;;;;;;10.19;100.00;98636.75;1709895;82;21480;-67
2021/05/07 03:36:23;;;;;;;8.80;3.50;;;;;;;10.21;100.00;98627.97;1688754;82;21401;-72
2021/05/07 03:38:58;;;;;;;6.83;3.20;;;;;;;10.26;100.00;98621.31;1683626;84;20981;-72
2021/05/07 03:41:30;;;;;;;8.38;3.17;;;;;;;10.30;100.00;98617.75;1681805;84;20982;-72
2021/05/07 03:44:06;;;;;;;15.85;3.47;;;;;;;10.38;100.00;98610.16;1716107;82;20950;-72
2021/05/07 03:46:43;;;;;;;7.55;3.50;;;;;;;10.45;100.00;98608.34;1729215;82;20947;-71
2021/05/07 03:49:13;;;;;;;31.77;3.85;;;;;;;10.53;100.00;98605.14;1743301;81;21291;-71
2021/05/07 03:51:44;;;;;;;7.58;3.33;;;;;;;10.60;100.00;98608.56;1742188;81;20951;-71
2021/05/07 03:54:18;;;;;;;29.63;5.03;;;;;;;10.66;100.00;98604.50;1715991;82;20978;-72
2021/05/07 03:56:48;;;;;;;7.58;2.87;;;;;;;10.73;100.00;98608.34;1716030;82;20907;-72
2021/05/07 03:59:17;;;;;;;18.87;4.30;;;;;;;10.79;100.00;98601.23;1731422;82;20896;-72
2021/05/07 04:01:51;;;;;;;4.37;2.10;;;;;;;10.85;100.00;98599.81;1745197;80;21214;-74
2021/05/07 04:04:21;;;;;;;8.18;2.90;;;;;;;10.91;100.00;98595.79;1745714;81;20974;-73
2021/05/07 04:06:53;;;;;;;47.85;4.78;;;;;;;11.00;100.00;98596.95;1744786;82;20955;-72
2021/05/07 04:10:01;;;;;;;5.22;2.80;;;;;;;11.13;100.00;98594.53;1837035;75;22723;-70
2021/05/07 04:15:07;;;;;;;8.60;3.12;;;;;;;11.25;100.00;98610.60;1817916;77;21368;-70
2021/05/07 04:17:36;;;;;;;8.73;2.70;;;;;;;11.26;100.00;98611.89;1797077;78;21036;-72
2021/05/07 04:20:11;;;;;;;5.05;2.70;;;;;;;11.28;100.00;98619.79;1789994;79;21043;-71
2021/05/07 04:22:42;;;;;;;8.40;3.17;;;;;;;11.33;100.00;98620.58;1774128;79;21124;-72
2021/05/07 04:25:15;;;;;;;11.45;4.00;;;;;;;11.36;100.00;98616.59;1752962;81;21673;-71
2021/05/07 04:27:46;;;;;;;9.68;3.40;;;;;;;11.36;100.00;98620.56;1758369;80;21615;-73
2021/05/07 04:30:28;;;;;;;5.17;3.08;;;;;;;11.39;100.00;98618.31;1779074;78;21498;-73
2021/05/07 04:33:01;;;;;;;6.60;3.10;;;;;;;11.40;100.00;98625.34;1798303;78;20914;-69
2021/05/07 04:35:31;;;;;;;10.68;3.33;;;;;;;11.44;100.00;98626.58;1801427;78;21072;-69
2021/05/07 04:38:04;;;;;;;5.90;3.00;;;;;;;11.50;100.00;98621.63;1815703;78;21038;-70
2021/05/07 04:40:33;;;;;;;9.95;3.00;;;;;;;11.59;100.00;98626.73;1803668;78;22198;-69
2021/05/07 04:43:04;;;;;;;50.05;5.08;;;;;;;11.67;100.00;98625.70;1827179;78;20942;-69
2021/05/07 04:45:34;;;;;;;9.28;2.65;;;;;;;11.78;100.00;98621.56;1826233;78;21211;-70
2021/05/07 04:48:12;;;;;;;12.63;3.02;;;;;;;11.87;100.00;98618.77;1802917;78;20941;-68
2021/05/07 04:50:43;;;;;;;13.60;2.40;;;;;;;12.00;100.00;98618.07;1803315;78;21049;-67
2021/05/07 04:53:15;;;;;;;28.95;2.72;;;;;;;12.16;100.00;98622.59;1797542;78;21258;-68
2021/05/07 04:55:44;;;;;;;7.90;2.27;;;;;;;12.31;100.00;98617.00;1805864;78;20994;-69
2021/05/07 04:58:14;;;;;;;16.90;2.90;;;;;;;12.47;100.00;98629.44;1825062;78;21096;-70
2021/05/07 05:00:43;;;;;;;6.35;2.80;;;;;;;12.63;100.00;98632.61;1809554;78;20918;-69
2021/05/07 05:03:14;;;;;;;7.03;2.90;;;;;;;12.78;100.00;98627.88;1794617;78;21081;-69
2021/05/07 05:05:45;;;;;;;8.95;2.77;;;;;;;12.93;100.00;98630.61;1794734;78;21367;-70
2021/05/07 05:08:22;;;;;;;8.78;2.72;;;;;;;13.07;100.00;98632.47;1805334;78;20936;-71
2021/05/07 05:10:58;;;;;;;8.80;3.65;;;;;;;13.19;100.00;98628.22;1794173;78;21578;-69
2021/05/07 05:13:27;;;;;;;9.08;3.05;;;;;;;13.28;97.17;98623.18;1823252;78;21045;-70
2021/05/07 05:15:57;;;;;;;7.22;2.85;;;;;;;13.35;93.78;98618.14;1826410;78;21108;-69
2021/05/07 05:18:33;;;;;;;114.77;6.42;;;;;;;13.42;84.88;98630.32;1828488;78;21144;-70
2021/05/07 05:21:05;;;;;;;9.78;3.20;;;;;;;13.49;76.45;98633.22;1789418;80;21061;-69
2021/05/07 05:23:41;;;;;;;9.48;2.83;;;;;;;13.55;73.92;98637.03;1744178;81;21146;-69
2021/05/07 05:26:11;;;;;;;12.95;2.70;;;;;;;13.63;71.82;98628.02;1765334;80;21100;-67
2021/05/07 05:28:41;;;;;;;12.10;2.83;;;;;;;13.72;67.52;98627.80;1761065;80;21151;-68
2021/05/07 05:31:13;;;;;;;8.25;3.65;;;;;;;13.77;66.24;98634.72;1772564;80;21379;-68
2021/05/07 05:33:42;;;;;;;12.23;4.22;;;;;;;13.82;62.85;98635.91;1782759;80;21018;-69
2021/05/07 05:36:14;;;;;;;17.45;4.20;;;;;;;13.85;60.18;98638.02;1743778;81;20934;-68
2021/05/07 05:38:44;;;;;;;16.02;4.10;;;;;;;13.92;59.02;98644.03;1760999;80;21033;-69
2021/05/07 05:41:14;;;;;;;13.45;3.83;;;;;;;13.96;58.35;98641.70;1775512;80;21073;-69
2021/05/07 05:43:45;;;;;;;63.20;4.90;;;;;;;14.03;56.66;98643.27;1771418;80;21370;-69
2021/05/07 05:46:18;;;;;;;10.03;2.80;;;;;;;14.11;55.49;98647.90;1788918;80;21457;-69
2021/05/07 05:48:48;;;;;;;9.50;2.52;;;;;;;14.23;54.19;98644.52;1730195;81;21678;-69
2021/05/07 05:51:18;;;;;;;12.53;2.72;;;;;;;14.37;54.30;98643.66;1745140;81;20942;-68
2021/05/07 05:53:48;;;;;;;11.45;2.42;;;;;;;14.47;51.95;98633.21;1775271;80;20915;-69
2021/05/07 05:56:17;;;;;;;27.55;2.80;;;;;;;14.53;50.35;98630.38;1775689;80;21520;-68
2021/05/07 05:58:48;;;;;;;7.08;2.58;;;;;;;14.59;49.51;98627.98;1754935;81;21025;-67
2021/05/07 06:01:17;;;;;;;7.60;2.20;;;;;;;14.65;49.08;98633.98;1743377;81;21048;-68
2021/05/07 06:03:47;;;;;;;18.05;2.45;;;;;;;14.68;47.89;98631.72;1731241;81;21559;-68
2021/05/07 06:06:17;;;;;;;8.85;2.40;;;;;;;14.69;47.58;98633.45;1752167;80;21077;-68
2021/05/07 06:08:46;;;;;;;8.33;2.40;;;;;;;14.68;47.23;98629.94;1750464;80;21357;-68
2021/05/07 06:11:16;;;;;;;5.17;2.50;;;;;;;14.67;47.31;98623.34;1782526;80;21045;-68
2021/05/07 06:13:45;;;;;;;8.38;2.90;;;;;;;14.64;47.87;98614.98;1782449;80;21328;-67
2021/05/07 06:16:15;;;;;;;7.12;2.30;;;;;;;14.64;48.56;98617.64;1778951;80;21061;-67
2021/05/07 06:18:47;;;;;;;6.92;2.20;;;;;;;14.61;48.78;98620.39;1738090;81;21123;-68
2021/05/07 06:21:16;;;;;;;13.45;2.30;;;;;;;14.59;49.12;98622.22;1770234;80;22260;-67
2021/05/07 06:23:46;;;;;;;8.63;2.50;;;;;;;14.57;49.17;98608.59;1783543;80;21215;-67
2021/05/07 06:26:16;;;;;;;6.58;2.50;;;;;;;14.53;48.94;98603.83;1778473;80;21057;-66
2021/05/07 06:28:45;;;;;;;10.78;2.72;;;;;;;14.51;49.33;98607.45;1737624;81;21557;-66
2021/05/07 06:31:15;;;;;;;8.88;2.25;;;;;;;14.53;49.37;98615.77;1751742;81;21044;-65
2021/05/07 06:33:44;;;;;;;6.08;2.37;;;;;;;14.53;49.50;98614.45;1773786;80;21211;-65
2021/05/07 06:36:17;;;;;;;9.90;2.22;;;;;;;14.60;50.80;98619.98;1773453;80;21473;-65
2021/05/07 06:38:45;;;;;;;4.62;1.90;;;;;;;14.68;50.98;98604.72;1788604;80;21076;-65
2021/05/07 06:41:15;;;;;;;12.93;2.15;;;;;;;14.75;51.18;98597.42;1776223;80;21459;-65
2021/05/07 06:43:45;;;;;;;24.40;1.72;;;;;;;14.87;52.33;98598.81;1744036;81;20918;-66
2021/05/07 06:46:15;;;;;;;9.38;1.45;;;;;;;14.97;52.11;98594.94;1763257;80;21353;-65
2021/05/07 06:48:45;;;;;;;199.55;7.65;;;;;;;15.06;52.23;98595.52;1770024;80;21483;-65
2021/05/07 06:51:15;;;;;;;5.83;1.55;;;;;;;15.12;52.04;98587.34;1782846;80;21065;-66
2021/05/07 06:53:45;;;;;;;10.38;1.50;;;;;;;15.17;51.57;98580.58;1790459;80;21060;-66
2021/05/07 06:56:20;;;;;;;19.35;1.85;;;;;;;15.30;50.63;98581.02;1746114;81;20892;-66
2021/05/07 06:58:49;;;;;;;3.25;1.70;;;;;;;15.41;49.84;98578.41;1758581;80;21446;-66
2021/05/07 07:01:19;;;;;;;6.03;1.75;;;;;;;15.50;50.37;98577.67;1746350;81;21055;-66
2021/05/07 07:03:49;;;;;;;5.30;1.62;;;;;;;15.60;50.03;98578.66;1753137;81;21080;-66
2021/05/07 07:06:18;;;;;;;8.38;1.30;;;;;;;15.69;49.26;98578.82;1743825;81;21016;-66
2021/05/07 07:08:51;;;;;;;5.90;1.50;;;;;;;15.77;49.45;98590.52;1739654;81;21004;-66
2021/05/07 07:11:22;;;;;;;3.20;1.25;;;;;;;15.83;47.75;98582.31;1751625;81;21386;-66
2021/05/07 07:13:53;;;;;;;2.62;1.30;;;;;;;15.80;47.43;98576.64;1745975;81;20955;-65
2021/05/07 07:16:23;;;;;;;55.95;4.37;;;;;;;15.82;47.71;98579.25;1749886;81;20957;-65
2021/05/07 07:18:53;;;;;;;7.03;1.40;;;;;;;15.86;48.25;98573.76;1749991;81;21068;-66
2021/05/07 07:21:22;;;;;;;18.12;1.50;;;;;;;15.93;48.98;98573.94;1749370;81;21467;-66
2021/05/07 07:23:51;;;;;;;70.52;3.45;;;;;;;16.03;49.38;98567.81;1749718;81;21342;-65
2021/05/07 07:26:22;;;;;;;13.83;1.72;;;;;;;16.11;49.39;98560.91;1750730;81;21068;-65
2021/05/07 07:28:54;;;;;;;3.90;1.17;;;;;;;16.17;49.03;98564.66;1756133;81;21520;-66
2021/05/07 07:31:24;;;;;;;4.37;1.30;;;;;;;16.21;49.59;98579.59;1743466;81;20929;-66
2021/05/07 07:33:54;;;;;;;93.10;4.20;;;;;;;16.27;49.96;98558.06;1746960;81;20937;-66
2021/05/07 07:36:24;;;;;;;4.67;1.60;;;;;;;16.35;50.59;98557.30;1743800;81;21145;-67
2021/05/07 07:38:54;;;;;;;4.78;1.40;;;;;;;16.43;51.24;98557.88;1752050;81;20958;-67
2021/05/07 07:41:25;;;;;;;4.30;1.42;;;;;;;16.52;52.05;98547.32;1742865;81;21508;-67
2021/05/07 07:43:55;;;;;;;2.58;1.20;;;;;;;16.66;53.52;98555.69;1751359;81;20930;-68
2021/05/07 07:46:25;;;;;;;5.75;1.47;;;;;;;16.80;53.53;98552.47;1747602;81;21754;-68
2021/05/07 07:48:55;;;;;;;2.62;1.55;;;;;;;16.88;53.40;98541.03;1752093;81;21380;-68
2021/05/07 07:51:29;;;;;;;7.25;1.37;;;;;;;16.95;54.63;98534.05;1747805;81;21047;-69
2021/05/07 07:53:58;;;;;;;10.65;2.47;;;;;;;17.11;55.45;98535.64;1751373;81;21542;-68
2021/05/07 07:56:29;;;;;;;4.33;1.57;;;;;;;17.25;55.38;98527.92;1754870;81;21048;-69
2021/05/07 07:59:00;;;;;;;5.95;1.90;;;;;;;17.34;54.55;98517.80;1739093;81;21134;-69
2021/05/07 08:01:30;;;;;;;3.42;1.42;;;;;;;17.39;55.35;98508.66;1747715;81;22121;-69
2021/05/07 08:04:02;;;;;;;14.13;1.47;;;;;;;17.43;55.28;98508.06;1746813;81;21152;-68
2021/05/07 08:06:32;;;;;;;2.80;1.17;;;;;;;17.46;55.77;98513.26;1744741;81;21203;-68
2021/05/07 08:09:05;;;;;;;4.97;1.60;;;;;;;17.57;56.74;98486.55;1744796;81;21191;-67
2021/05/07 08:11:34;;;;;;;2.72;1.25;;;;;;;17.76;57.62;98490.61;1747738;81;20933;-67
2021/05/07 08:14:05;;;;;;;7.20;1.55;;;;;;;18.02;57.06;98500.58;1750048;81;21212;-67
2021/05/07 08:16:35;;;;;;;4.80;1.40;;;;;;;18.19;56.08;98477.50;1747349;81;21093;-68
2021/05/07 08:19:05;;;;;;;3.00;1.60;;;;;;;18.24;55.16;98477.28;1746157;81;20997;-68
2021/05/07 08:21:35;;;;;;;6.17;1.45;;;;;;;18.20;54.67;98485.90;1749723;81;21056;-69
2021/05/07 08:24:07;;;;;;;5.97;1.60;;;;;;;18.11;55.43;98496.15;1750065;81;21588;-68
2021/05/07 08:26:37;;;;;;;3.45;1.37;;;;;;;17.99;56.53;98500.72;1739697;81;21367;-68
2021/05/07 08:29:06;;;;;;;6.65;1.40;;;;;;;17.83;57.22;98484.06;1745950;81;21348;-68
2021/05/07 08:31:36;;;;;;;2.33;1.52;;;;;;;17.89;61.21;98474.44;1754257;81;20966;-68
2021/05/07 08:34:06;;;;;;;8.53;1.40;;;;;;;18.13;65.01;98474.25;1744964;81;21131;-69
2021/05/07 08:36:36;;;;;;;3.90;1.55;;;;;;;18.13;65.01;98474.25;1747602;81;21072;-68
2021/05/07 08:39:05;;;;;;;5.65;1.50;;;;;;;18.36;62.30;98469.14;1758269;81;21496;-68
2021/05/07 08:41:37;;;;;;;9.05;1.50;;;;;;;18.49;63.56;98466.30;1746957;81;21076;-68
2021/05/07 08:44:07;;;;;;;9.60;1.60;;;;;;;18.66;64.45;98463.70;1746159;81;21233;-69
2021/05/07 08:46:40;;;;;;;7.42;1.40;;;;;;;18.86;61.66;98463.56;1739942;81;21470;-68
2021/05/07 08:49:15;;;;;;;186.57;10.28;;;;;;;18.98;63.18;98462.11;1750202;81;21111;-68
2021/05/07 08:51:46;;;;;;;4.50;1.47;;;;;;;19.02;60.90;98464.15;1746229;81;21389;-68
2021/05/07 08:54:16;;;;;;;4.97;1.40;;;;;;;18.97;61.70;98463.52;1752133;81;21053;-67
2021/05/07 08:56:46;;;;;;;6.28;1.65;;;;;;;18.95;62.37;98466.27;1755348;81;21196;-66
2021/05/07 08:59:15;;;;;;;232.18;12.13;;;;;;;18.85;63.71;98462.30;1755737;81;21156;-66
2021/05/07 09:01:47;;;;;;;6.62;1.57;;;;;;;18.75;64.79;98475.27;1746225;81;21595;-68
2021/05/07 09:04:21;;;;;;;13.18;1.70;;;;;;;18.59;65.10;98461.37;1750540;81;21380;-69
2021/05/07 09:06:51;;;;;;;6.45;1.60;;;;;;;18.49;67.82;98460.97;1754122;81;20951;-69
2021/05/07 09:09:29;;;;;;;13.10;1.85;;;;;;;18.43;69.16;98466.10;1754871;81;21081;-70
2021/05/07 09:12:02;;;;;;;9.50;1.60;;;;;;;18.42;69.74;98472.86;1748314;81;21060;-69
2021/05/07 09:14:32;;;;;;;8.35;1.57;;;;;;;18.36;69.03;98472.68;1746419;81;21076;-69
2021/05/07 09:17:04;;;;;;;9.40;1.57;;;;;;;18.23;69.47;98467.53;1752384;81;22180;-69
2021/05/07 09:19:37;;;;;;;10.28;1.40;;;;;;;18.07;70.82;98457.20;1745890;81;21112;-69
2021/05/07 09:22:08;;;;;;;15.05;1.70;;;;;;;18.07;70.82;98457.20;1744049;81;20996;-69
2021/05/07 09:24:38;;;;;;;2.15;1.27;;;;;;;18.00;70.34;98456.63;1742465;81;21099;-69
2021/05/07 09:27:07;;;;;;;66.92;5.15;;;;;;;18.04;73.96;98452.87;1746452;81;21163;-69
2021/05/07 09:29:40;;;;;;;11.00;1.67;;;;;;;18.04;73.96;98452.87;1752002;81;21201;-68
2021/05/07 09:32:11;;;;;;;7.67;1.60;;;;;;;18.14;71.63;98444.82;1721206;81;21065;-68
2021/05/07 09:34:42;;;;;;;7.55;1.42;;;;;;;18.19;70.53;98432.12;1751394;81;21081;-68
2021/05/07 09:37:22;;;;;;;5.87;1.40;;;;;;;18.16;72.02;98448.28;1740058;81;21068;-68
2021/05/07 09:39:55;;;;;;;9.75;1.35;;;;;;;18.20;73.43;98451.20;1745359;81;21083;-68
2021/05/07 09:42:25;;;;;;;;;;;;;;;18.20;73.43;98451.20;1706836;81;22120;-68
2021/05/07 09:44:55;;;;;;;4.22;1.40;;;;;;;18.17;74.26;98435.33;1746162;81;20228;-68
2021/05/07 09:47:24;;;;;;;21.97;1.82;;;;;;;18.18;76.93;98433.06;1752543;81;20950;-69
2021/05/07 09:50:03;;;;;;;13.10;1.90;;;;;;;18.21;77.50;98436.91;1690184;82;21076;-68
2021/05/07 09:52:34;;;;;;;4.28;1.52;;;;;;;18.20;74.75;98432.52;1740093;81;21119;-68
2021/05/07 09:57:47;;;;;;;53.08;3.67;;;;;;;18.27;78.30;98435.75;1771518;79;21303;-67
2021/05/07 10:00:18;;;;;;;9.55;1.67;;;;;;;18.34;81.04;98437.65;1763285;80;21061;-66
2021/05/07 10:02:49;;;;;;;7.10;1.50;;;;;;;18.41;81.01;98437.27;1774666;79;21069;-67
2021/05/07 10:05:19;;;;;;;7.62;1.70;;;;;;;18.49;80.87;98441.80;1775563;79;21669;-66
2021/05/07 10:07:49;;;;;;;14.73;1.90;;;;;;;18.65;83.19;98427.71;1779761;80;21375;-67
2021/05/07 10:10:22;;;;;;;7.22;1.70;;;;;;;18.87;84.01;98418.53;1776288;79;21073;-67
2021/05/07 10:12:55;;;;;;;7.03;1.35;;;;;;;19.04;80.05;98423.51;1768950;79;21169;-67
2021/05/07 10:15:37;;;;;;;9.35;1.60;;;;;;;19.08;78.75;98425.08;1774933;80;21184;-67
2021/05/07 10:18:10;;;;;;;8.40;1.60;;;;;;;19.13;78.80;98434.58;1771126;79;20934;-65
2021/05/07 10:20:41;;;;;;;5.78;1.40;;;;;;;19.19;80.40;98430.25;1772068;79;21694;-67
2021/05/07 10:23:20;;;;;;;11.27;1.80;;;;;;;19.20;79.81;98425.77;1774731;80;21092;-66
2021/05/07 10:25:59;;;;;;;10.32;1.70;;;;;;;19.13;79.56;98430.58;1774242;80;21146;-68
2021/05/07 10:28:31;;;;;;;5.22;1.77;;;;;;;19.12;82.91;98423.97;1773445;80;21066;-63
2021/05/07 10:31:08;;;;;;;6.17;1.60;;;;;;;19.18;84.54;98412.95;1775012;80;21057;-67
2021/05/07 10:33:38;;;;;;;14.10;2.20;;;;;;;19.29;83.72;98412.38;1763245;80;21212;-67
2021/05/07 10:36:08;;;;;;;18.52;1.90;;;;;;;19.33;84.04;98409.47;1768459;79;20966;-66
2021/05/07 10:38:43;;;;;;;4.50;1.80;;;;;;;19.38;85.33;98403.40;1742265;80;21077;-67
2021/05/07 10:41:21;;;;;;;43.52;2.47;;;;;;;19.44;85.61;98404.91;1740154;80;21665;-68
2021/05/07 10:43:52;;;;;;;15.15;2.15;;;;;;;19.44;83.36;98385.72;1744133;80;21174;-67
2021/05/07 10:46:23;;;;;;;9.25;1.70;;;;;;;19.45;83.93;98391.45;1731956;80;21377;-67
2021/05/07 10:48:58;;;;;;;4.58;1.60;;;;;;;19.42;79.85;98367.55;1762533;80;21918;-67
2021/05/07 10:51:29;;;;;;;13.45;2.20;;;;;;;19.40;82.83;98375.27;1764519;79;21091;-67
2021/05/07 10:54:14;;;;;;;12.88;1.70;;;;;;;19.45;83.23;98374.55;1776027;80;21066;-67
2021/05/07 10:56:46;;;;;;;7.20;1.72;;;;;;;19.48;84.78;98369.89;1770070;79;21494;-67
2021/05/07 10:59:21;;;;;;;5.37;1.87;;;;;;;19.47;85.20;98382.01;1774850;80;21378;-67
2021/05/07 11:02:03;;;;;;;5.72;1.70;;;;;;;19.45;85.08;98377.22;1764056;81;20979;-67
2021/05/07 11:04:48;;;;;;;6.72;1.80;;;;;;;19.46;87.67;98376.27;1738236;80;21596;-69
2021/05/07 11:07:29;;;;;;;6.28;2.00;;;;;;;19.52;88.53;98369.25;1768466;79;21199;-67
2021/05/07 11:10:12;;;;;;;10.80;2.00;;;;;;;19.57;89.36;98359.67;1757311;81;21163;-67
2021/05/07 11:12:44;;;;;;;10.72;2.37;;;;;;;19.62;88.96;98375.85;1774169;80;21458;-69
2021/05/07 11:15:17;;;;;;;7.42;2.17;;;;;;;19.69;90.09;98365.67;1754929;79;21587;-70
2021/05/07 11:17:48;;;;;;;38.30;3.15;;;;;;;19.85;91.30;98371.03;1791491;78;21119;-68
2021/05/07 11:20:20;;;;;;;6.58;1.70;;;;;;;19.99;90.05;98364.46;1783825;78;21208;-66
2021/05/07 11:22:57;;;;;;;6.97;1.90;;;;;;;20.01;88.34;98370.12;1754794;79;21124;-69
2021/05/07 11:25:26;;;;;;;10.35;1.65;;;;;;;19.98;87.21;98360.06;1765408;80;21441;-67
2021/05/07 11:27:58;;;;;;;11.53;1.77;;;;;;;19.89;86.91;98360.10;1765947;80;21158;-67
2021/05/07 11:30:28;;;;;;;4.70;1.87;;;;;;;19.78;88.90;98368.70;1757837;78;26523;-65
2021/05/07 11:33:01;;;;;;;17.05;1.90;;;;;;;19.75;90.87;98360.84;1776491;80;21264;-67
2021/05/07 11:35:31;;;;;;;13.10;2.30;;;;;;;19.78;91.34;98363.35;1768815;79;21016;-66
2021/05/07 11:38:01;;;;;;;8.93;1.90;;;;;;;19.77;91.93;98346.05;1772127;79;21233;-68
2021/05/07 11:40:37;;;;;;;4.55;1.87;;;;;;;19.74;93.07;98335.51;1765243;80;21164;-67
2021/05/07 11:43:11;;;;;;;7.00;2.20;;;;;;;19.73;95.87;98325.76;1771589;78;21500;-65
2021/05/07 11:45:41;;;;;;;5.53;1.82;;;;;;;19.89;97.76;98327.13;1764700;80;21479;-66
2021/05/07 11:48:13;;;;;;;54.38;2.72;;;;;;;20.07;95.67;98319.38;1767556;80;21075;-66
2021/05/07 11:50:45;;;;;;;6.70;1.80;;;;;;;20.11;89.36;98318.25;1764042;80;21272;-66
2021/05/07 11:53:23;;;;;;;6.58;1.80;;;;;;;20.01;90.84;98296.97;1755449;80;21468;-64
2021/05/07 11:55:55;;;;;;;3.83;1.90;;;;;;;19.98;91.69;98283.77;1766249;79;20941;-67
2021/05/07 11:58:36;;;;;;;5.62;2.05;;;;;;;19.96;94.37;98295.91;1768528;79;21067;-66
2021/05/07 12:01:07;;;;;;;7.45;2.08;;;;;;;19.93;94.02;98282.70;1757195;79;21093;-66
2021/05/07 12:03:41;;;;;;;6.25;1.90;;;;;;;19.81;94.12;98293.59;1767194;78;21392;-64
2021/05/07 12:06:29;;;;;;;4.55;2.37;;;;;;;19.67;96.35;98294.86;1797167;79;21634;-66